Terminal Aerodrome Forecast
Issued by NWS

Current Version | Previous Version | Graphics & Text | Print | Product List | Glossary On
Versions: 1 2 3 4 5 6 7 8 9 10 11 12 13 14 15 16 17 18 19 20 21 22 23 24
000
FTUS41 KRLX 182336
TAFCKB
TAF
KCKB 182336Z 1900/1924 VRB03KT P6SM BKN250
     FM191000 16005KT P6SM BKN040
     FM191300 17006KT 6SM -RA BKN035
     FM191600 19008G14KT 6SM -RA BKN035
     FM191900 20009G16KT P6SM BKN300
     FM192200 20007KT P6SM BKN250=

USA.gov is the U.S. government's official web portal to all federal, state and local government web resources and services.